Time;durP1;ratioP1;P1;durP2;ratioP2;P2;SDS_P1;SDS_P2;PMS_P1;PMS_P2;Temp;Humidity;BMP_temperature;BMP_pressure;BME280_temperature;BME280_humidity;BME280_pressure;Samples;Min_cycle;Max_cycle;Signal;HPM_P1;HPM_P2
2021/06/15 00:00:40;;;;;;;;;;;;;;;30.25;61.94;100786.66;5086285;27;65428;-32
2021/06/15 00:03:11;;;;;;;;;;;;;;;30.28;62.16;100786.25;5085025;27;68933;-33
2021/06/15 00:05:43;;;;;;;;;;;;;;;30.32;63.21;100783.09;5083559;27;66792;-32
2021/06/15 00:08:14;;;;;;;;;;;;;;;30.32;65.61;100775.81;5086068;27;71217;-33
2021/06/15 00:10:46;;;;;;;;;;;;;;;30.28;66.44;100779.97;5088964;27;65186;-35
2021/06/15 00:13:17;;;;;;;;;;;;;;;30.28;66.59;100779.97;5086321;27;69995;-33
2021/06/15 00:15:49;;;;;;;;;;;;;;;30.25;67.66;100783.13;5091483;27;66331;-35
2021/06/15 00:18:20;;;;;;;;;;;;;;;30.25;67.75;100785.84;5081676;27;70630;-33
2021/06/15 00:20:54;;;;;;;;;;;;;;;30.28;67.61;100780.84;5085432;27;66129;-36
2021/06/15 00:23:25;;;;;;;;;;;;;;;30.33;67.88;100792.88;5085072;27;69777;-35
2021/06/15 00:26:03;;;;;;;;;;;;;;;30.32;67.87;100785.81;5068253;27;66278;-38
2021/06/15 00:28:36;;;;;;;;;;;;;;;30.41;66.12;100795.31;5091805;27;69943;-34
2021/06/15 00:31:16;;;;;;;;;;;;;;;30.46;66.18;100793.59;5083853;27;65294;-35
2021/06/15 00:33:47;;;;;;;;;;;;;;;30.55;65.71;100796.88;5086653;27;69758;-36
2021/06/15 00:36:18;;;;;;;;;;;;;;;30.61;65.32;100806.81;5082343;27;66174;-34
2021/06/15 00:38:52;;;;;;;;;;;;;;;30.67;64.91;100799.69;5080886;27;69190;-35
2021/06/15 00:41:23;;;;;;;;;;;;;;;30.72;65.69;100799.84;5084358;27;66232;-34
2021/06/15 00:43:54;;;;;;;;;;;;;;;30.78;64.60;100808.97;5082999;27;70631;-38
2021/06/15 00:46:25;;;;;;;;;;;;;;;30.82;65.21;100810.22;5077376;27;67572;-38
2021/06/15 00:48:56;;;;;;;;;;;;;;;30.87;65.12;100819.34;5079600;27;69723;-41
2021/06/15 00:51:28;;;;;;;;;;;;;;;30.91;64.74;100811.59;5081393;27;65742;-39
2021/06/15 00:54:00;;;;;;;;;;;;;;;30.94;64.63;100806.56;5081178;27;69463;-36
2021/06/15 00:56:46;;;;;;;;;;;;;;;30.99;64.58;100813.22;5071545;27;66160;-39
2021/06/15 00:59:42;;;;;;;;;;;;;;;31.02;64.51;100813.59;5079749;27;70085;-36
2021/06/15 01:02:14;;;;;;;;;;;;;;;31.04;64.35;100814.19;5082016;27;66756;-37
2021/06/15 01:04:46;;;;;;;;;;;;;;;31.08;64.28;100812.69;5081976;27;69661;-39
2021/06/15 01:07:26;;;;;;;;;;;;;;;31.09;64.66;100825.19;5082305;27;66771;-36
2021/06/15 01:10:17;;;;;;;;;;;;;;;31.13;64.32;100826.38;5077887;27;69983;-35
2021/06/15 01:13:09;;;;;;;;;;;;;;;31.16;64.60;100820.53;5075597;27;67191;-36
2021/06/15 01:15:53;;;;;;;;;;;;;;;31.19;64.49;100815.72;5090721;27;70147;-37
2021/06/15 01:18:25;;;;;;;;;;;;;;;31.22;64.12;100823.41;5082818;27;66139;-36
2021/06/15 01:21:10;;;;;;;;;;;;;;;31.25;64.06;100822.94;5081028;27;69967;-37
2021/06/15 01:23:59;;;;;;;;;;;;;;;31.27;64.38;100823.56;5062125;27;66129;-40
2021/06/15 01:26:44;;;;;;;;;;;;;;;31.30;64.49;100825.81;5077026;27;69317;-36
2021/06/15 01:29:19;;;;;;;;;;;;;;;31.31;64.09;100828.28;5079365;27;66962;-36
2021/06/15 01:31:57;;;;;;;;;;;;;;;31.33;63.97;100836.19;5074994;27;69985;-37
2021/06/15 01:34:33;;;;;;;;;;;;;;;31.36;64.40;100824.94;5075620;27;66590;-36
2021/06/15 01:37:10;;;;;;;;;;;;;;;31.39;64.30;100835.34;5087942;27;70818;-38
2021/06/15 01:40:02;;;;;;;;;;;;;;;31.41;63.70;100838.66;5067823;27;66094;-34
2021/06/15 01:42:50;;;;;;;;;;;;;;;31.42;64.12;100845.72;5076110;27;70524;-36
2021/06/15 01:45:40;;;;;;;;;;;;;;;31.44;63.58;100846.34;5096022;27;66079;-38
2021/06/15 01:48:28;;;;;;;;;;;;;;;31.45;63.89;100847.97;5081964;27;70119;-36
2021/06/15 01:51:04;;;;;;;;;;;;;;;31.47;63.78;100843.16;5077018;27;66270;-36
2021/06/15 01:53:41;;;;;;;;;;;;;;;31.50;63.95;100837.28;5076738;27;70565;-35
2021/06/15 01:56:20;;;;;;;;;;;;;;;31.54;63.53;100851.25;5101570;27;65637;-35
2021/06/15 01:58:59;;;;;;;;;;;;;;;31.54;63.55;100849.34;5076589;27;69637;-36
2021/06/15 02:01:34;;;;;;;;;;;;;;;31.57;63.66;100854.31;5094801;27;65383;-36
2021/06/15 02:04:11;;;;;;;;;;;;;;;31.60;63.69;100862.00;5093080;27;68942;-36
2021/06/15 02:07:04;;;;;;;;;;;;;;;31.62;63.37;100850.91;5066112;27;65234;-38
2021/06/15 02:09:40;;;;;;;;;;;;;;;31.65;63.10;100855.06;5077129;27;69094;-35
2021/06/15 02:12:31;;;;;;;;;;;;;;;31.67;63.39;100855.66;5078368;27;66878;-36
2021/06/15 02:15:41;;;;;;;;;;;;;;;31.71;63.17;100865.03;5049477;27;70180;-39
2021/06/15 02:18:44;;;;;;;;;;;;;;;31.73;62.93;100862.91;5076688;27;65586;-35
2021/06/15 02:21:25;;;;;;;;;;;;;;;31.75;63.03;100864.31;5059660;27;70297;-36
2021/06/15 02:23:58;;;;;;;;;;;;;;;31.77;63.07;100861.41;5089413;27;66374;-37
2021/06/15 02:26:32;;;;;;;;;;;;;;;31.79;63.12;100867.44;5048836;27;69493;-35
2021/06/15 02:29:05;;;;;;;;;;;;;;;31.81;62.87;100870.72;5056281;27;66296;-36
2021/06/15 02:31:40;;;;;;;;;;;;;;;31.82;62.93;100861.56;5100075;27;69484;-34
2021/06/15 02:34:14;;;;;;;;;;;;;;;31.85;63.05;100869.22;5076034;27;66310;-34
2021/06/15 02:36:53;;;;;;;;;;;;;;;31.87;62.40;100867.09;5061796;27;70724;-36
2021/06/15 02:39:32;;;;;;;;;;;;;;;31.88;62.58;100866.06;5088825;27;66972;-37
2021/06/15 02:42:07;;;;;;;;;;;;;;;31.90;62.76;100869.38;5078106;27;70669;-36
2021/06/15 02:44:41;;;;;;;;;;;;;;;31.93;62.42;100868.97;5077938;27;66370;-41
2021/06/15 02:47:20;;;;;;;;;;;;;;;31.96;62.36;100868.50;5086224;27;70342;-40
2021/06/15 02:49:56;;;;;;;;;;;;;;;31.98;62.01;100869.09;5074625;27;67088;-36
2021/06/15 02:52:52;;;;;;;;;;;;;;;32.00;62.42;100869.69;5092817;27;69182;-38
2021/06/15 02:55:30;;;;;;;;;;;;;;;32.02;62.13;100873.00;5086847;27;66248;-36
2021/06/15 02:58:02;;;;;;;;;;;;;;;32.04;62.27;100870.91;5072756;27;69554;-36
2021/06/15 03:00:34;;;;;;;;;;;;;;;32.09;61.99;100874.81;5083110;27;65544;-34
2021/06/15 03:03:06;;;;;;;;;;;;;;;32.12;61.93;100877.06;5081737;27;69284;-36
2021/06/15 03:05:42;;;;;;;;;;;;;;;32.15;61.56;100871.16;5082028;27;66531;-37
2021/06/15 03:08:39;;;;;;;;;;;;;;;32.17;61.71;100869.06;5064340;27;69881;-40
2021/06/15 03:11:14;;;;;;;;;;;;;;;32.18;61.61;100866.13;5083185;27;66610;-38
2021/06/15 03:13:46;;;;;;;;;;;;;;;32.21;61.24;100854.81;5079228;27;69206;-38
2021/06/15 03:16:27;;;;;;;;;;;;;;;32.23;61.24;100851.84;5080949;27;66290;-36
2021/06/15 03:19:03;;;;;;;;;;;;;;;32.26;60.89;100851.38;5076825;27;70092;-34
2021/06/15 03:22:00;;;;;;;;;;;;;;;32.26;60.91;100838.66;5084271;27;66579;-35
2021/06/15 03:24:34;;;;;;;;;;;;;;;32.30;61.08;100830.06;5061208;27;69133;-35
2021/06/15 03:27:08;;;;;;;;;;;;;;;32.31;60.74;100816.25;5097201;27;65922;-37
2021/06/15 03:29:47;;;;;;;;;;;;;;;32.35;60.70;100811.19;5081063;27;70159;-36
2021/06/15 03:32:21;;;;;;;;;;;;;;;32.37;60.88;100809.88;5084743;27;66482;-39
2021/06/15 03:34:55;;;;;;;;;;;;;;;32.38;60.91;100800.69;5076778;27;69140;-37
2021/06/15 03:37:29;;;;;;;;;;;;;;;32.41;60.25;100794.78;5082317;27;66248;-36
2021/06/15 03:40:02;;;;;;;;;;;;;;;32.44;60.45;100788.06;5085849;27;69538;-36
2021/06/15 03:42:47;;;;;;;;;;;;;;;32.45;60.33;100785.09;5078850;27;66392;-40
2021/06/15 03:45:18;;;;;;;;;;;;;;;32.45;60.05;100779.69;5083870;27;69981;-36
2021/06/15 03:47:51;;;;;;;;;;;;;;;32.46;60.17;100786.81;5084345;27;66293;-42
2021/06/15 03:50:22;;;;;;;;;;;;;;;32.49;60.28;100772.75;5080525;27;69777;-39
2021/06/15 03:52:57;;;;;;;;;;;;;;;32.52;60.21;100779.63;5084117;27;65560;-37
2021/06/15 03:55:30;;;;;;;;;;;;;;;32.47;59.52;100766.72;5086011;27;69190;-36
2021/06/15 03:58:03;;;;;;;;;;;;;;;32.55;59.96;100773.72;5081267;27;65683;-36
2021/06/15 04:00:36;;;;;;;;;;;;;;;32.59;59.78;100774.06;5081996;27;69833;-36
2021/06/15 04:03:09;;;;;;;;;;;;;;;32.61;59.71;100766.53;5079698;27;65589;-37
2021/06/15 04:05:40;;;;;;;;;;;;;;;32.60;59.42;100770.31;5076954;27;69991;-36
2021/06/15 04:08:14;;;;;;;;;;;;;;;32.63;59.66;100764.41;5095147;27;66277;-35
2021/06/15 04:10:47;;;;;;;;;;;;;;;32.65;59.23;100754.09;5077333;27;70823;-36
2021/06/15 04:13:19;;;;;;;;;;;;;;;32.65;59.29;100763.09;5081267;27;65360;-36
2021/06/15 04:15:55;;;;;;;;;;;;;;;32.66;59.23;100761.22;5076823;27;70030;-39
2021/06/15 04:18:27;;;;;;;;;;;;;;;32.66;59.34;100763.94;5080073;27;66330;-35
2021/06/15 04:21:10;;;;;;;;;;;;;;;32.66;59.34;100758.50;5076205;27;70086;-36
2021/06/15 04:23:44;;;;;;;;;;;;;;;32.69;59.00;100749.88;5078489;27;65523;-36
2021/06/15 04:26:18;;;;;;;;;;;;;;;32.69;59.20;100752.59;5076726;27;68618;-38
2021/06/15 04:29:01;;;;;;;;;;;;;;;32.68;59.06;100740.91;5079815;27;66799;-35
2021/06/15 04:31:34;;;;;;;;;;;;;;;32.69;59.27;100744.44;5079887;27;70152;-35
2021/06/15 04:34:06;;;;;;;;;;;;;;;32.72;59.13;100738.53;5074257;27;65500;-35
2021/06/15 04:36:38;;;;;;;;;;;;;;;32.73;58.88;100721.16;5089338;27;68876;-37
2021/06/15 04:39:15;;;;;;;;;;;;;;;32.75;58.75;100713.63;5076923;27;65797;-36
2021/06/15 04:42:08;;;;;;;;;;;;;;;32.77;58.44;100722.38;5085442;27;69091;-38
2021/06/15 04:44:43;;;;;;;;;;;;;;;32.76;58.47;100704.38;5075717;27;66415;-36
2021/06/15 04:47:18;;;;;;;;;;;;;;;32.79;58.48;100706.66;5077001;27;69968;-36
2021/06/15 04:49:56;;;;;;;;;;;;;;;32.80;58.36;100705.59;5078802;27;65630;-36
2021/06/15 04:52:27;;;;;;;;;;;;;;;32.82;58.67;100708.91;5080415;27;70945;-39
2021/06/15 04:55:14;;;;;;;;;;;;;;;32.85;58.23;100697.56;5088035;27;66003;-36
2021/06/15 04:57:47;;;;;;;;;;;;;;;32.86;58.23;100682.91;5078983;27;69135;-36
2021/06/15 05:00:21;;;;;;;;;;;;;;;32.87;58.16;100695.41;5080413;27;66790;-36
2021/06/15 05:02:53;;;;;;;;;;;;;;;32.89;58.18;100682.41;5082042;27;69361;-35
2021/06/15 05:05:26;;;;;;;;;;;;;;;32.91;57.93;100676.75;5081881;27;66203;-39
2021/06/15 05:08:05;;;;;;;;;;;;;;;32.93;57.83;100667.31;5082341;27;69924;-36
2021/06/15 05:10:49;;;;;;;;;;;;;;;32.94;57.83;100666.22;5085681;27;66459;-37
2021/06/15 05:13:21;;;;;;;;;;;;;;;32.99;57.53;100656.50;5080956;27;70046;-36
2021/06/15 05:15:53;;;;;;;;;;;;;;;33.00;57.55;100659.03;5077829;27;66044;-36
2021/06/15 05:18:25;;;;;;;;;;;;;;;33.03;57.36;100644.16;5083191;27;69265;-37
2021/06/15 05:20:56;;;;;;;;;;;;;;;33.02;57.40;100642.50;5083756;27;66409;-34
2021/06/15 05:23:45;;;;;;;;;;;;;;;33.01;57.70;100647.09;5083497;27;70245;-36
2021/06/15 05:26:19;;;;;;;;;;;;;;;33.02;57.52;100648.75;5081838;27;65088;-40
2021/06/15 05:28:51;;;;;;;;;;;;;;;33.03;57.57;100644.16;5089698;27;69353;-35
2021/06/15 05:31:22;;;;;;;;;;;;;;;33.05;57.33;100636.59;5076326;27;65352;-36
2021/06/15 05:33:55;;;;;;;;;;;;;;;33.08;57.65;100641.53;5083830;27;69850;-36
2021/06/15 05:36:32;;;;;;;;;;;;;;;33.10;57.42;100637.50;5077313;27;66509;-38
2021/06/15 05:39:04;;;;;;;;;;;;;;;33.14;57.22;100630.50;5075236;27;69923;-39
2021/06/15 05:41:36;;;;;;;;;;;;;;;33.18;57.35;100627.31;5076619;27;66858;-37
2021/06/15 05:44:07;;;;;;;;;;;;;;;33.19;57.26;100621.66;5076225;27;68840;-38
2021/06/15 05:46:39;;;;;;;;;;;;;;;33.20;56.98;100604.25;5076935;27;65476;-37
2021/06/15 05:49:11;;;;;;;;;;;;;;;33.23;57.14;100606.47;5075290;27;70628;-37
2021/06/15 05:51:46;;;;;;;;;;;;;;;33.23;57.04;100611.09;5076914;27;66210;-38
2021/06/15 05:54:20;;;;;;;;;;;;;;;33.23;56.95;100605.66;5088306;27;70285;-39
2021/06/15 05:56:52;;;;;;;;;;;;;;;33.24;57.15;100602.72;5079113;27;65169;-38
2021/06/15 05:59:24;;;;;;;;;;;;;;;33.25;57.13;100598.91;5081442;27;70013;-37
2021/06/15 06:01:58;;;;;;;;;;;;;;;33.26;57.29;100595.13;5079963;27;43081;-38
2021/06/15 06:08:04;;;;;;;;;;;;;;;33.28;57.05;100593.00;5078649;27;69298;-37
2021/06/15 06:10:23;;;;;;;;;;;;;;;33.27;56.68;100591.34;5073412;27;69052;-36
2021/06/15 06:12:54;;;;;;;;;;;;;;;33.28;56.97;100603.06;5080155;27;66227;-37
2021/06/15 06:15:26;;;;;;;;;;;;;;;33.28;57.14;100606.59;5079860;27;70091;-36
2021/06/15 06:18:07;;;;;;;;;;;;;;;33.29;56.96;100599.25;5074853;27;65887;-37
2021/06/15 06:20:42;;;;;;;;;;;;;;;33.29;56.89;100583.78;5075553;27;69156;-37
2021/06/15 06:23:30;;;;;;;;;;;;;;;33.29;56.88;100602.81;5076879;27;65604;-36
2021/06/15 06:26:10;;;;;;;;;;;;;;;33.30;56.93;100620.78;5080842;27;68995;-41
2021/06/15 06:29:06;;;;;;;;;;;;;;;33.30;57.33;100612.63;5077009;27;66349;-37
2021/06/15 06:31:50;;;;;;;;;;;;;;;33.29;57.18;100581.06;5077584;27;69305;-37
2021/06/15 06:34:39;;;;;;;;;;;;;;;33.30;57.41;100563.69;5079914;27;66556;-38
2021/06/15 06:37:15;;;;;;;;;;;;;;;33.31;57.78;100554.44;5083670;27;69266;-36
2021/06/15 06:39:50;;;;;;;;;;;;;;;33.31;57.90;100538.13;5079213;27;65509;-37
2021/06/15 06:42:25;;;;;;;;;;;;;;;33.32;58.13;100523.50;5088554;27;70336;-36
2021/06/15 06:45:19;;;;;;;;;;;;;;;33.32;58.31;100517.22;5077553;27;65757;-37
2021/06/15 06:47:54;;;;;;;;;;;;;;;33.31;58.57;100532.69;5072896;27;70144;-36
2021/06/15 06:50:48;;;;;;;;;;;;;;;33.31;58.66;100543.56;5081782;27;66252;-36
2021/06/15 06:53:20;;;;;;;;;;;;;;;33.30;59.06;100560.97;5079394;27;70755;-39
2021/06/15 06:55:52;;;;;;;;;;;;;;;33.30;59.15;100563.69;5075310;27;65963;-41
2021/06/15 06:58:35;;;;;;;;;;;;;;;33.28;59.69;100560.38;5075689;27;69796;-39
2021/06/15 07:02:10;;;;;;;;;;;;;;;33.25;59.81;100566.31;5070386;27;67000;-38
2021/06/15 07:04:44;;;;;;;;;;;;;;;33.25;60.25;100573.63;5084942;27;69298;-35
2021/06/15 07:07:23;;;;;;;;;;;;;;;33.22;60.50;100569.50;5081294;27;66499;-39
2021/06/15 07:09:56;;;;;;;;;;;;;;;33.21;60.44;100565.16;5082721;27;70254;-37
2021/06/15 07:12:46;;;;;;;;;;;;;;;33.20;60.61;100544.47;5077440;27;66204;-37
2021/06/15 07:15:18;;;;;;;;;;;;;;;33.20;60.67;100571.63;5077892;27;69415;-37
2021/06/15 07:17:51;;;;;;;;;;;;;;;33.17;61.14;100595.78;5072688;27;66699;-38
2021/06/15 07:20:24;;;;;;;;;;;;;;;33.13;60.77;100628.88;5075527;27;70511;-39
2021/06/15 07:22:55;;;;;;;;;;;;;;;33.11;60.84;100622.84;5076205;27;65423;-38
2021/06/15 07:25:30;;;;;;;;;;;;;;;33.09;61.09;100616.00;5076346;27;69590;-37
2021/06/15 07:28:03;;;;;;;;;;;;;;;33.05;61.27;100620.28;5077916;27;66287;-37
2021/06/15 07:30:34;;;;;;;;;;;;;;;32.96;61.17;100648.84;5077682;27;70451;-39
2021/06/15 07:33:16;;;;;;;;;;;;;;;32.84;61.94;100660.56;5077911;27;67147;-38
2021/06/15 07:36:09;;;;;;;;;;;;;;;32.72;61.99;100572.84;5080284;27;69892;-38
2021/06/15 07:39:06;;;;;;;;;;;;;;;32.59;61.93;100583.97;5080740;27;65574;-38
2021/06/15 07:41:38;;;;;;;;;;;;;;;32.51;62.09;100570.78;5079957;27;70353;-36
2021/06/15 07:44:13;;;;;;;;;;;;;;;32.42;61.88;100562.97;5074361;27;65406;-36
2021/06/15 07:46:46;;;;;;;;;;;;;;;32.35;62.13;100577.75;5076306;27;69774;-36
2021/06/15 07:49:17;;;;;;;;;;;;;;;32.32;61.74;100576.31;5079507;27;65647;-36
2021/06/15 07:51:49;;;;;;;;;;;;;;;32.33;61.63;100569.00;5082116;27;70099;-36
2021/06/15 07:54:36;;;;;;;;;;;;;;;32.33;61.71;100542.69;5079800;27;65892;-37
2021/06/15 07:57:08;;;;;;;;;;;;;;;32.33;61.93;100531.00;5079168;27;70346;-36
2021/06/15 07:59:40;;;;;;;;;;;;;;;32.33;61.81;100520.97;5087456;27;66295;-36
2021/06/15 08:02:11;;;;;;;;;;;;;;;32.34;61.70;100525.31;5089234;27;69265;-36
2021/06/15 08:04:42;;;;;;;;;;;;;;;32.35;61.54;100537.03;5089169;27;66400;-37
2021/06/15 08:07:14;;;;;;;;;;;;;;;32.35;61.74;100550.59;5091500;27;70014;-39
2021/06/15 08:09:45;;;;;;;;;;;;;;;32.36;61.69;100561.19;5094585;27;65633;-37
2021/06/15 08:12:20;;;;;;;;;;;;;;;32.36;61.49;100558.50;5077969;27;70135;-40
2021/06/15 08:14:52;;;;;;;;;;;;;;;32.35;61.79;100573.13;5081175;27;66234;-36
2021/06/15 08:17:24;;;;;;;;;;;;;;;32.36;61.99;100574.78;5078195;27;70225;-37
2021/06/15 08:19:56;;;;;;;;;;;;;;;32.35;62.19;100573.13;5082837;27;66984;-36
2021/06/15 08:22:27;;;;;;;;;;;;;;;32.35;61.95;100572.31;5079106;27;69565;-37
2021/06/15 08:24:58;;;;;;;;;;;;;;;32.35;62.14;100585.88;5077375;27;66703;-36
2021/06/15 08:27:31;;;;;;;;;;;;;;;32.33;61.99;100588.81;5067363;27;68657;-37
2021/06/15 08:30:06;;;;;;;;;;;;;;;32.33;62.49;100580.69;5103791;27;65942;-36
2021/06/15 08:32:38;;;;;;;;;;;;;;;32.33;62.46;100569.81;5078655;27;70140;-36
2021/06/15 08:35:10;;;;;;;;;;;;;;;32.32;62.41;100605.34;5082795;27;66375;-38
2021/06/15 08:37:41;;;;;;;;;;;;;;;32.30;62.48;100613.72;5080364;27;69004;-37
2021/06/15 08:40:12;;;;;;;;;;;;;;;32.31;62.06;100626.22;5082891;27;65475;-38
2021/06/15 08:42:44;;;;;;;;;;;;;;;32.24;62.17;100630.97;5072948;27;70299;-42
2021/06/15 08:45:16;;;;;;;;;;;;;;;32.31;61.94;100631.66;5083216;27;65354;-36
2021/06/15 08:47:48;;;;;;;;;;;;;;;32.28;62.13;100648.41;5078788;27;70833;-39
2021/06/15 08:50:22;;;;;;;;;;;;;;;32.28;61.96;100643.00;5083157;27;65657;-38
2021/06/15 08:52:56;;;;;;;;;;;;;;;32.27;62.26;100652.22;5080260;27;70083;-37
2021/06/15 08:55:32;;;;;;;;;;;;;;;32.26;61.96;100666.81;5085205;27;65573;-37
2021/06/15 08:58:05;;;;;;;;;;;;;;;32.25;62.26;100659.75;5078444;27;69939;-37
2021/06/15 09:00:43;;;;;;;;;;;;;;;32.22;62.70;100644.75;5079294;27;66557;-37
2021/06/15 09:03:14;;;;;;;;;;;;;;;32.22;62.54;100638.50;5083938;27;69177;-36
2021/06/15 09:05:48;;;;;;;;;;;;;;;32.22;62.71;100633.09;5078541;27;66084;-37
2021/06/15 09:08:31;;;;;;;;;;;;;;;32.20;63.02;100622.44;5078512;27;70237;-38
2021/06/15 09:11:05;;;;;;;;;;;;;;;32.18;62.87;100610.16;5080574;27;65310;-37
2021/06/15 09:13:40;;;;;;;;;;;;;;;32.16;62.60;100594.16;5077395;27;69220;-38
2021/06/15 09:16:36;;;;;;;;;;;;;;;32.13;62.52;100591.09;5078668;27;65645;-37
2021/06/15 09:19:27;;;;;;;;;;;;;;;32.13;62.63;100591.09;5077707;27;69602;-36
2021/06/15 09:21:59;;;;;;;;;;;;;;;32.10;62.62;100581.53;5079467;27;66930;-37
2021/06/15 09:24:29;;;;;;;;;;;;;;;32.10;62.54;100586.13;5079207;27;69351;-37
2021/06/15 09:27:10;;;;;;;;;;;;;;;32.08;62.45;100588.25;5077839;27;66522;-37
2021/06/15 09:29:42;;;;;;;;;;;;;;;32.05;62.39;100579.50;5076865;27;69820;-36
2021/06/15 09:32:41;;;;;;;;;;;;;;;32.04;62.52;100583.28;5076287;27;66418;-37
2021/06/15 09:35:16;;;;;;;;;;;;;;;32.01;62.33;100591.91;5078798;27;69940;-37
2021/06/15 09:37:51;;;;;;;;;;;;;;;32.00;62.40;100600.28;5073751;27;66145;-36
2021/06/15 09:40:24;;;;;;;;;;;;;;;31.98;62.64;100621.38;5080549;27;69630;-37
2021/06/15 09:43:00;;;;;;;;;;;;;;;31.96;62.34;100613.47;5078501;27;66445;-38
2021/06/15 09:45:44;;;;;;;;;;;;;;;31.94;62.79;100612.06;5092176;27;69957;-40
2021/06/15 09:48:27;;;;;;;;;;;;;;;31.92;62.14;100616.88;5076014;27;65221;-36
2021/06/15 09:51:00;;;;;;;;;;;;;;;31.91;62.36;100609.78;5074638;27;69971;-37
2021/06/15 09:53:35;;;;;;;;;;;;;;;31.90;62.39;100608.97;5081573;27;66384;-36
2021/06/15 09:56:06;;;;;;;;;;;;;;;31.88;62.38;100611.09;5074804;27;70075;-38
2021/06/15 09:58:46;;;;;;;;;;;;;;;31.86;62.47;100607.75;5078286;27;65468;-38
2021/06/15 10:01:43;;;;;;;;;;;;;;;31.86;62.38;100624.03;5078028;27;69944;-37
2021/06/15 10:04:18;;;;;;;;;;;;;;;31.82;62.61;100617.44;5075022;27;66009;-37
2021/06/15 10:06:50;;;;;;;;;;;;;;;31.81;62.61;100629.34;5073046;27;70237;-39
2021/06/15 10:09:27;;;;;;;;;;;;;;;31.81;62.62;100615.78;5077864;27;66279;-36
2021/06/15 10:12:07;;;;;;;;;;;;;;;31.78;62.53;100613.53;5077084;27;69398;-37
2021/06/15 10:14:42;;;;;;;;;;;;;;;31.78;62.61;100621.66;5077628;27;66748;-38
2021/06/15 10:17:13;;;;;;;;;;;;;;;31.76;63.01;100626.50;5083134;27;70023;-38
2021/06/15 10:19:44;;;;;;;;;;;;;;;31.74;62.53;100626.75;5079256;27;66689;-36
2021/06/15 10:22:16;;;;;;;;;;;;;;;31.74;62.84;100631.34;5067667;27;71146;-36
2021/06/15 10:24:50;;;;;;;;;;;;;;;31.73;62.64;100613.41;5073902;27;66026;-36
2021/06/15 10:27:21;;;;;;;;;;;;;;;31.71;62.72;100612.81;5077374;27;70345;-36
2021/06/15 10:29:55;;;;;;;;;;;;;;;31.69;62.91;100618.47;5078704;27;67140;-37
2021/06/15 10:32:27;;;;;;;;;;;;;;;31.68;63.19;100624.97;5078271;27;68709;-37
2021/06/15 10:35:12;;;;;;;;;;;;;;;31.66;63.01;100629.78;5085696;27;66869;-37
2021/06/15 10:37:45;;;;;;;;;;;;;;;31.65;62.86;100619.16;5085359;27;69943;-39
2021/06/15 10:40:16;;;;;;;;;;;;;;;31.62;62.83;100623.16;5083079;27;66136;-37
2021/06/15 10:43:06;;;;;;;;;;;;;;;31.63;63.17;100629.44;5079601;27;69861;-37
2021/06/15 10:45:38;;;;;;;;;;;;;;;31.61;63.13;100633.16;5082185;27;65230;-38
2021/06/15 10:48:12;;;;;;;;;;;;;;;31.63;63.28;100626.72;5083091;27;69147;-37
2021/06/15 10:50:56;;;;;;;;;;;;;;;31.60;64.05;100631.53;5080521;27;66948;-37
2021/06/15 10:53:37;;;;;;;;;;;;;;;31.60;64.27;100628.81;5085044;27;69017;-37
2021/06/15 10:56:09;;;;;;;;;;;;;;;31.60;64.13;100622.56;5084952;27;66950;-36
2021/06/15 10:58:47;;;;;;;;;;;;;;;31.59;63.97;100618.19;5065021;27;69338;-39
2021/06/15 11:01:38;;;;;;;;;;;;;;;31.59;64.45;100621.75;5079192;27;66506;-39
2021/06/15 11:04:11;;;;;;;;;;;;;;;31.59;64.92;100623.63;5086071;27;69425;-38
2021/06/15 11:06:47;;;;;;;;;;;;;;;31.58;64.38;100620.09;5086406;27;66266;-39
2021/06/15 11:09:21;;;;;;;;;;;;;;;31.55;64.86;100612.41;5080843;27;69850;-37
2021/06/15 11:12:04;;;;;;;;;;;;;;;31.53;64.45;100622.66;5082924;27;65428;-45
2021/06/15 11:14:37;;;;;;;;;;;;;;;31.50;64.83;100612.28;5081983;27;70804;-38
2021/06/15 11:17:08;;;;;;;;;;;;;;;31.45;64.46;100622.16;5083117;27;65584;-40
2021/06/15 11:19:43;;;;;;;;;;;;;;;31.32;64.19;100612.31;5065648;27;70814;-39
2021/06/15 11:22:20;;;;;;;;;;;;;;;31.12;65.01;100615.28;5071349;27;66333;-36
2021/06/15 11:25:00;;;;;;;;;;;;;;;30.99;65.00;100618.16;5088686;27;70766;-40
2021/06/15 11:27:36;;;;;;;;;;;;;;;30.83;65.25;100611.47;5088763;27;66735;-42
2021/06/15 11:30:13;;;;;;;;;;;;;;;30.65;65.80;100617.69;5085052;27;70215;-39
2021/06/15 11:33:03;;;;;;;;;;;;;;;30.53;66.14;100612.19;5082801;27;66920;-39
2021/06/15 11:35:41;;;;;;;;;;;;;;;30.45;66.25;100623.31;5087583;27;70178;-39
2021/06/15 11:38:16;;;;;;;;;;;;;;;30.41;66.58;100617.50;5086524;27;67454;-39
2021/06/15 11:40:47;;;;;;;;;;;;;;;30.35;67.45;100612.19;5084464;27;70747;-39
2021/06/15 11:43:20;;;;;;;;;;;;;;;30.27;67.24;100606.00;5084311;27;66082;-38
2021/06/15 11:45:52;;;;;;;;;;;;;;;30.23;67.00;100604.78;5091730;27;70071;-39
2021/06/15 11:48:31;;;;;;;;;;;;;;;30.23;66.94;100610.22;5086769;27;65427;-38
2021/06/15 11:51:04;;;;;;;;;;;;;;;30.19;67.80;100606.25;5088719;27;69092;-41
2021/06/15 11:53:37;;;;;;;;;;;;;;;30.12;68.15;100602.78;5089503;27;66248;-37
2021/06/15 11:56:12;;;;;;;;;;;;;;;30.13;68.17;100599.03;5088867;27;70128;-39
2021/06/15 11:58:44;;;;;;;;;;;;;;;30.16;67.63;100601.28;5087877;27;66074;-39
2021/06/15 12:01:16;;;;;;;;;;;;;;;30.15;68.34;100607.75;5088386;27;68409;-36
2021/06/15 12:03:48;;;;;;;;;;;;;;;30.18;68.03;100615.41;5084979;27;65608;-38
2021/06/15 12:06:21;;;;;;;;;;;;;;;30.16;68.37;100614.81;5082383;27;69765;-36
2021/06/15 12:08:52;;;;;;;;;;;;;;;30.16;67.81;100619.41;5083975;27;66932;-37
2021/06/15 12:11:25;;;;;;;;;;;;;;;30.12;68.27;100619.03;5092602;27;69942;-37
2021/06/15 12:13:56;;;;;;;;;;;;;;;30.10;68.95;100628.41;5081518;27;66190;-37
2021/06/15 12:16:34;;;;;;;;;;;;;;;30.20;69.38;100626.84;5086736;27;69307;-37
2021/06/15 12:19:06;;;;;;;;;;;;;;;30.23;70.98;100625.63;5086698;27;66191;-40
2021/06/15 12:21:43;;;;;;;;;;;;;;;30.33;71.03;100642.16;5082698;27;71182;-39
2021/06/15 12:24:15;;;;;;;;;;;;;;;30.34;69.29;100648.38;5085905;27;65562;-39
2021/06/15 12:26:47;;;;;;;;;;;;;;;30.35;68.35;100655.47;5082650;27;69129;-37
2021/06/15 12:29:18;;;;;;;;;;;;;;;30.31;68.24;100649.66;5087377;27;65312;-38
2021/06/15 12:31:51;;;;;;;;;;;;;;;30.28;67.61;100645.53;5083945;27;69114;-39
2021/06/15 12:34:25;;;;;;;;;;;;;;;30.21;68.03;100647.44;5083679;27;66316;-39
2021/06/15 12:37:03;;;;;;;;;;;;;;;30.25;67.95;100650.56;5090703;27;70032;-38
2021/06/15 12:39:36;;;;;;;;;;;;;;;30.21;68.16;100650.16;5079184;27;64771;-36
2021/06/15 12:42:14;;;;;;;;;;;;;;;30.21;67.54;100650.16;5082872;27;69961;-38
2021/06/15 12:44:46;;;;;;;;;;;;;;;30.16;68.13;100647.28;5070850;27;65696;-36
2021/06/15 12:47:19;;;;;;;;;;;;;;;30.16;68.00;100636.44;5085211;27;70759;-36
2021/06/15 12:49:52;;;;;;;;;;;;;;;30.17;68.28;100648.94;5084181;27;65642;-38
2021/06/15 12:52:38;;;;;;;;;;;;;;;30.19;67.91;100649.53;5083956;27;69783;-37
2021/06/15 12:55:15;;;;;;;;;;;;;;;30.20;68.57;100653.91;5088503;27;66383;-38
2021/06/15 12:57:59;;;;;;;;;;;;;;;30.19;68.31;100665.75;5100736;27;70006;-39
2021/06/15 13:00:31;;;;;;;;;;;;;;;30.17;68.82;100676.00;5100130;27;66418;-38
2021/06/15 13:03:10;;;;;;;;;;;;;;;30.18;68.48;100677.66;5084133;27;70065;-40
2021/06/15 13:05:41;;;;;;;;;;;;;;;30.16;68.17;100679.72;5101492;27;66249;-38
2021/06/15 13:08:15;;;;;;;;;;;;;;;30.15;68.69;100682.69;5088878;27;69273;-40
2021/06/15 13:10:46;;;;;;;;;;;;;;;30.13;68.86;100691.00;5092971;27;65520;-39
2021/06/15 13:13:25;;;;;;;;;;;;;;;30.11;68.71;100694.97;5089293;27;69513;-38
2021/06/15 13:16:11;;;;;;;;;;;;;;;30.10;68.87;100686.03;5082357;27;66805;-40
2021/06/15 13:18:56;;;;;;;;;;;;;;;30.10;69.06;100690.63;5085324;27;69444;-39
2021/06/15 13:21:49;;;;;;;;;;;;;;;30.11;68.77;100687.69;5079293;27;65532;-40
2021/06/15 13:24:31;;;;;;;;;;;;;;;30.10;67.33;100694.16;5088927;27;69299;-41
2021/06/15 13:27:21;;;;;;;;;;;;;;;30.03;65.02;100699.63;5081663;27;66901;-38